Lincoln Fly Road

*Note: All times are displayed in the local standard time of the station location.
**Rain - Equipment is designed to accurately record liquid precipitation; under conditions when precipitation is not in liquid form, the data displayed may not properly reflect rainfall values.

Date Max Temp
(°C)
Min Temp
(°C)
Avg Temp
(°C)
Rain (mm) Avg RH (%)
Sun, Dec 10, 2017 -2.2 -3.8 -3.0 0.0 69.5
Sat, Dec 09, 2017 1.5 -3.9 -1.2 0.0 58.8
Fri, Dec 08, 2017 -0.8 -5.1 -2.6 0.0 57.7
Thu, Dec 07, 2017 0.4 -4.3 -1.7 0.0 59.2
Wed, Dec 06, 2017 3.1 -1.9 0.6 0.0 49.0
Tue, Dec 05, 2017 10.6 -0.2 6.8 8.8 65.0
Mon, Dec 04, 2017 10.2 -1.6 5.4 0.4 69.1
DateTime Avg Temp (°C) Rain (mm) RH (%)
Mon, Dec 11, 2017 02:00 -3.6 0.0 81.8
Mon, Dec 11, 2017 01:00 -2.8 0.0 74.3
Mon, Dec 11, 2017 00:00 -3.0 0.0 70.3
Sun, Dec 10, 2017 23:00 -3.4 0.0 71.8
Sun, Dec 10, 2017 22:00 -3.4 0.0 69.8
Sun, Dec 10, 2017 21:00 -3.2 0.0 69.0
Sun, Dec 10, 2017 20:00 -3.2 0.0 66.5
Sun, Dec 10, 2017 19:00 -3.1 0.0 65.8
Sun, Dec 10, 2017 18:00 -2.6 0.0 61.3
Sun, Dec 10, 2017 17:00 -2.3 0.0 58.8
Sun, Dec 10, 2017 16:00 -2.3 0.0 62.8
Sun, Dec 10, 2017 15:00 -2.2 0.0 64.5
Sun, Dec 10, 2017 14:00 -2.3 0.0 63.5
Sun, Dec 10, 2017 13:00 -2.4 0.0 65.8
Sun, Dec 10, 2017 12:00 -2.5 0.0 62.8
Sun, Dec 10, 2017 11:00 -2.8 0.0 59.8
Sun, Dec 10, 2017 10:00 -3.3 0.0 61.5
Sun, Dec 10, 2017 09:00 -3.6 0.0 64.0
Sun, Dec 10, 2017 08:00 -3.7 0.0 64.3
Sun, Dec 10, 2017 07:00 -3.6 0.0 73.3
Sun, Dec 10, 2017 06:00 -3.8 0.0 77.3
Sun, Dec 10, 2017 05:00 -3.3 0.0 81.5
Sun, Dec 10, 2017 04:00 -3.2 0.0 83.3
Sun, Dec 10, 2017 03:00 -3.2 0.0 83.0
Sun, Dec 10, 2017 02:00 -3.4 0.0 83.8
Sun, Dec 10, 2017 01:00 -3.3 0.0 85.0
Sun, Dec 10, 2017 00:00 -3.3 0.0 85.3
Sat, Dec 09, 2017 23:00 -3.8 0.0 85.0
Sat, Dec 09, 2017 22:00 -3.5 0.0 83.3
Sat, Dec 09, 2017 21:00 -2.8 0.0 80.0
Sat, Dec 09, 2017 20:00 -1.9 0.0 72.3
Sat, Dec 09, 2017 19:00 -1.1 0.0 57.8
Sat, Dec 09, 2017 18:00 -1.1 0.0 55.3
Sat, Dec 09, 2017 17:00 -0.6 0.0 51.3
Sat, Dec 09, 2017 16:00 0.2 0.0 48.8
Sat, Dec 09, 2017 15:00 0.3 0.0 47.0
Sat, Dec 09, 2017 14:00 0.8 0.0 43.5
Sat, Dec 09, 2017 13:00 0.2 0.0 47.8
Sat, Dec 09, 2017 12:00 0.8 0.0 43.3
Sat, Dec 09, 2017 11:00 0.6 0.0 45.3
Sat, Dec 09, 2017 10:00 0.1 0.0 53.3
Sat, Dec 09, 2017 09:00 -1.4 0.0 63.3
Sat, Dec 09, 2017 08:00 -1.2 0.0 66.5
Sat, Dec 09, 2017 07:00 -0.9 0.0 68.5
Sat, Dec 09, 2017 06:00 -1.2 0.0 62.3
Sat, Dec 09, 2017 05:00 -1.6 0.0 51.8
Sat, Dec 09, 2017 04:00 -1.9 0.0 51.8
Sat, Dec 09, 2017 03:00 -1.8 0.0 50.3


asterix Register now to access more data! asterix